Time;durP1;ratioP1;P1;durP2;ratioP2;P2;SDS_P1;SDS_P2;PMS_P1;PMS_P2;Temp;Humidity;BMP_temperature;BMP_pressure;BME280_temperature;BME280_humidity;BME280_pressure;Samples;Min_cycle;Max_cycle;Signal;HPM_P1;HPM_P2
2021/10/28 04:55:15;;;;;;;22.50;20.37;;;8.60;99.90;;;;;;10135576;29;20811;-86
2021/10/28 05:00:19;;;;;;;20.83;18.73;;;8.60;99.90;;;;;;10129710;29;20297;-85
2021/10/28 05:05:22;;;;;;;21.00;19.03;;;8.60;99.90;;;;;;10171392;29;20714;-82
2021/10/28 05:10:24;;;;;;;21.17;19.20;;;8.50;99.90;;;;;;10174285;29;20226;-82
2021/10/28 05:15:28;;;;;;;22.33;20.43;;;8.60;99.90;;;;;;10188583;29;20230;-83
2021/10/28 05:20:30;;;;;;;20.17;18.37;;;8.50;99.90;;;;;;10174376;29;20608;-84
2021/10/28 05:25:32;;;;;;;20.00;18.10;;;8.50;99.90;;;;;;10186628;29;20222;-84
2021/10/28 05:30:36;;;;;;;23.00;20.80;;;8.50;99.90;;;;;;10170391;29;20225;-82
2021/10/28 05:35:38;;;;;;;23.13;21.03;;;8.50;99.90;;;;;;10168587;29;20233;-84
2021/10/28 05:40:40;;;;;;;23.30;21.03;;;8.40;99.90;;;;;;10165830;29;20202;-85
2021/10/28 05:45:45;;;;;;;22.27;20.03;;;8.40;99.90;;;;;;10165364;29;20662;-85
2021/10/28 05:50:47;;;;;;;21.57;19.60;;;8.40;99.90;;;;;;10164997;29;20317;-84
2021/10/28 05:55:50;;;;;;;22.73;20.70;;;8.40;99.90;;;;;;10164670;29;20239;-85
2021/10/28 06:00:53;;;;;;;21.70;19.70;;;8.30;99.90;;;;;;10187499;29;20269;-85
2021/10/28 06:05:55;;;;;;;23.40;21.20;;;8.30;99.90;;;;;;10217695;29;20213;-84
2021/10/28 06:10:58;;;;;;;20.67;18.70;;;8.40;99.90;;;;;;10179643;29;20218;-83
2021/10/28 06:16:02;;;;;;;21.87;19.87;;;8.40;99.90;;;;;;10173035;29;20232;-85
2021/10/28 06:21:05;;;;;;;19.77;17.97;;;8.40;99.90;;;;;;10168301;29;20704;-83
2021/10/28 06:26:12;;;;;;;19.67;17.73;;;8.30;99.90;;;;;;10181723;29;20222;-85
2021/10/28 06:31:16;;;;;;;21.97;19.87;;;8.30;99.90;;;;;;10182981;29;20245;-83
2021/10/28 06:36:23;;;;;;;21.03;19.10;;;8.40;99.90;;;;;;10182313;29;20686;-83
2021/10/28 06:41:27;;;;;;;19.00;17.10;;;8.40;99.90;;;;;;10181390;29;20269;-85
2021/10/28 06:46:30;;;;;;;20.30;18.47;;;8.50;99.90;;;;;;10190940;29;20233;-83
2021/10/28 06:51:37;;;;;;;21.77;19.67;;;8.50;99.90;;;;;;10169728;29;20345;-84
2021/10/28 06:56:58;;;;;;;20.30;18.40;;;8.60;99.90;;;;;;10200141;29;20572;-83
2021/10/28 07:02:18;;;;;;;20.13;18.33;;;8.60;99.90;;;;;;10201191;29;20270;-83
2021/10/28 07:07:21;;;;;;;20.10;18.30;;;8.70;99.90;;;;;;10201692;29;20206;-83
2021/10/28 07:12:28;;;;;;;20.00;18.20;;;8.80;99.90;;;;;;10207059;29;20217;-83
2021/10/28 07:17:56;;;;;;;18.57;17.03;;;8.90;99.90;;;;;;10183393;29;20217;-83
2021/10/28 07:23:13;;;;;;;20.07;18.37;;;9.00;99.90;;;;;;10176813;29;20226;-84
2021/10/28 07:28:36;;;;;;;19.63;17.80;;;9.00;99.90;;;;;;10181951;29;20241;-84
2021/10/28 07:33:54;;;;;;;21.17;19.07;;;9.20;99.90;;;;;;10161001;29;20308;-84
2021/10/28 07:55:45;;;;;;;20.53;18.60;;;9.40;99.90;;;;;;10165947;29;20626;-84
2021/10/28 08:13:27;;;;;;;21.50;19.40;;;9.40;99.90;;;;;;10165914;29;20224;-84
2021/10/28 08:22:44;;;;;;;21.63;19.63;;;9.60;99.90;;;;;;10181348;29;20754;-84
2021/10/28 08:33:06;;;;;;;20.20;18.40;;;9.60;99.90;;;;;;10163423;29;20225;-84
2021/10/28 08:38:09;;;;;;;20.40;18.60;;;9.70;99.90;;;;;;10165128;29;20207;-84
2021/10/28 08:43:12;;;;;;;21.90;19.90;;;9.80;99.90;;;;;;10182255;29;20230;-84
2021/10/28 08:48:18;;;;;;;21.50;19.43;;;9.90;99.90;;;;;;10161959;29;20226;-84
2021/10/28 09:25:23;;;;;;;23.47;21.27;;;10.80;99.90;;;;;;10198291;29;20237;-85
2021/10/28 09:30:39;;;;;;;27.00;24.20;;;10.90;99.90;;;;;;10171564;29;20237;-84
2021/10/28 09:35:54;;;;;;;27.97;25.13;;;11.10;99.90;;;;;;10172530;29;20220;-85
2021/10/28 09:46:39;;;;;;;26.27;23.57;;;11.30;99.90;;;;;;10187582;29;20725;-84
2021/10/28 09:51:45;;;;;;;26.13;23.60;;;11.40;99.90;;;;;;10187409;29;20686;-84
2021/10/28 10:02:15;;;;;;;26.00;23.20;;;11.50;99.90;;;;;;10186266;29;20225;-84
2021/10/28 10:07:19;;;;;;;26.07;23.40;;;11.60;99.90;;;;;;10186663;29;20222;-84
2021/10/28 10:12:23;;;;;;;24.13;21.70;;;11.70;99.90;;;;;;10170100;29;20289;-84
2021/10/28 10:17:26;;;;;;;25.70;22.97;;;11.70;99.90;;;;;;10169415;29;20201;-84
2021/10/28 10:22:40;;;;;;;25.60;23.00;;;11.80;99.90;;;;;;10170234;29;20286;-84
2021/10/28 12:46:58;;;;;;;17.67;16.07;;;13.30;99.90;;;;;;10200970;29;20312;-84
2021/10/28 13:36:12;;;;;;;20.27;15.07;;;13.50;99.90;;;;;;10160416;29;20229;-83
2021/10/28 13:52:08;;;;;;;15.67;14.27;;;13.60;99.90;;;;;;10220547;29;20652;-83
2021/10/28 13:57:23;;;;;;;16.00;14.60;;;13.70;99.90;;;;;;10222276;29;20300;-83
2021/10/28 15:02:09;;;;;;;11.27;10.03;;;13.70;99.90;;;;;;10158927;29;20575;-83
2021/10/28 15:28:37;;;;;;;10.20;9.30;;;13.60;99.90;;;;;;10160775;29;20277;-83
2021/10/28 15:39:14;;;;;;;10.20;9.00;;;13.40;99.90;;;;;;10188962;29;20205;-83
2021/10/28 16:00:28;;;;;;;13.60;12.27;;;13.10;99.90;;;;;;10202096;29;20296;-82
2021/10/28 16:21:54;;;;;;;12.27;11.17;;;12.80;99.90;;;;;;10218099;29;20207;-82
2021/10/28 16:26:57;;;;;;;18.57;12.60;;;12.70;99.90;;;;;;10232275;29;20277;-81
2021/10/28 16:32:01;;;;;;;12.27;11.07;;;12.70;99.90;;;;;;10200759;29;20229;-81
2021/10/28 16:37:13;;;;;;;14.23;12.67;;;12.60;99.90;;;;;;10197952;29;20711;-81
2021/10/28 16:42:15;;;;;;;17.00;15.40;;;12.60;99.90;;;;;;10199264;29;20287;-82
2021/10/28 16:47:19;;;;;;;14.27;12.30;;;12.50;99.90;;;;;;10190618;29;20223;-81
2021/10/28 16:57:28;;;;;;;16.23;14.20;;;12.40;99.90;;;;;;10146447;29;20218;-83
2021/10/28 17:02:32;;;;;;;13.50;12.20;;;12.30;99.90;;;;;;10109241;29;20202;-83
2021/10/28 17:07:34;;;;;;;15.93;13.87;;;12.30;99.90;;;;;;10149175;29;20206;-83
2021/10/28 17:12:39;;;;;;;14.23;12.87;;;12.20;99.90;;;;;;10163476;29;20237;-83
2021/10/28 17:17:44;;;;;;;15.47;13.87;;;12.10;99.90;;;;;;10144770;29;20204;-83
2021/10/28 17:22:59;;;;;;;14.67;13.27;;;12.10;99.90;;;;;;10144441;29;20725;-83
2021/10/28 17:28:02;;;;;;;17.93;15.90;;;12.00;99.90;;;;;;10159556;29;20309;-83
2021/10/28 17:33:06;;;;;;;19.10;17.20;;;11.90;99.90;;;;;;10146468;29;20237;-83
2021/10/28 17:38:08;;;;;;;17.40;15.60;;;11.90;99.90;;;;;;10153081;29;20277;-83
2021/10/28 17:43:12;;;;;;;15.53;13.53;;;11.80;99.90;;;;;;10153545;29;20285;-83
2021/10/28 17:48:15;;;;;;;16.27;14.73;;;11.80;99.90;;;;;;10125690;29;20257;-84
2021/10/28 17:53:19;;;;;;;18.23;16.40;;;11.80;99.90;;;;;;10112797;29;20261;-85
2021/10/28 17:58:22;;;;;;;17.93;16.13;;;11.70;99.90;;;;;;10096167;29;20232;-82
2021/10/28 18:03:25;;;;;;;15.93;14.23;;;11.70;99.90;;;;;;10126109;29;20234;-82
2021/10/28 18:08:28;;;;;;;16.03;14.37;;;11.60;99.90;;;;;;10147643;29;20771;-83
2021/10/28 18:13:30;;;;;;;16.00;14.40;;;11.60;99.90;;;;;;10116157;29;20230;-83
2021/10/28 18:18:33;;;;;;;13.67;12.43;;;11.60;99.90;;;;;;10110045;29;20199;-82
2021/10/28 18:23:43;;;;;;;14.97;13.57;;;11.50;99.90;;;;;;10127349;29;20263;-82
2021/10/28 18:28:46;;;;;;;20.87;16.00;;;11.50;99.90;;;;;;10107796;29;20671;-82
2021/10/28 18:33:50;;;;;;;14.63;13.10;;;11.50;99.90;;;;;;10114201;29;20227;-82
2021/10/28 18:38:52;;;;;;;12.93;11.73;;;11.50;99.90;;;;;;10140480;29;20742;-81
2021/10/28 18:43:55;;;;;;;13.03;11.83;;;11.40;99.90;;;;;;10149767;29;20249;-82
2021/10/28 18:49:00;;;;;;;11.50;10.50;;;11.40;99.90;;;;;;10149596;29;20256;-82
2021/10/28 18:54:02;;;;;;;10.13;9.30;;;11.40;99.90;;;;;;10136646;29;20245;-81
2021/10/28 18:59:05;;;;;;;12.60;10.30;;;11.30;99.90;;;;;;10111646;29;20259;-81
2021/10/28 19:04:08;;;;;;;10.83;9.83;;;11.20;99.90;;;;;;10123692;29;20230;-82
2021/10/28 19:09:11;;;;;;;11.50;10.47;;;11.20;99.90;;;;;;10091237;29;20228;-82
2021/10/28 19:16:26;;;;;;;12.03;10.93;;;11.10;99.90;;;;;;10533440;28;20549;-81
2021/10/28 19:21:30;;;;;;;13.90;12.60;;;11.10;99.90;;;;;;10476197;28;20330;-81
2021/10/28 19:26:32;;;;;;;12.83;11.80;;;11.10;99.90;;;;;;10491264;28;20622;-81
2021/10/28 19:31:43;;;;;;;11.93;10.73;;;11.10;99.90;;;;;;10491249;28;20299;-82
2021/10/28 19:36:56;;;;;;;11.63;10.43;;;11.10;99.90;;;;;;10491771;28;20239;-82
2021/10/28 19:42:11;;;;;;;13.27;11.97;;;11.10;99.90;;;;;;10492886;28;20195;-81
2021/10/28 19:47:15;;;;;;;12.10;10.93;;;11.00;99.90;;;;;;10491711;28;20216;-81
2021/10/28 19:52:18;;;;;;;13.80;12.40;;;11.00;99.90;;;;;;10490216;28;20204;-81
2021/10/28 19:57:23;;;;;;;13.93;12.63;;;11.00;99.90;;;;;;10493756;28;20225;-81
2021/10/28 20:02:34;;;;;;;13.80;12.50;;;11.00;99.90;;;;;;10492005;28;20188;-82
2021/10/28 20:08:01;;;;;;;15.37;13.60;;;11.00;99.90;;;;;;10491054;28;20215;-81
2021/10/28 20:13:22;;;;;;;14.60;13.37;;;10.90;99.90;;;;;;10470286;28;20274;-80
2021/10/28 20:23:46;;;;;;;16.57;15.07;;;10.90;99.90;;;;;;10435040;28;20220;-81
2021/10/28 20:28:50;;;;;;;17.60;15.90;;;10.80;99.90;;;;;;10451150;28;20232;-82
2021/10/28 20:34:03;;;;;;;17.57;15.93;;;10.80;99.90;;;;;;10419241;28;20377;-82
2021/10/28 20:39:06;;;;;;;18.10;16.30;;;10.70;99.90;;;;;;10426638;28;20217;-81
2021/10/28 20:44:09;;;;;;;17.47;15.60;;;10.70;99.90;;;;;;10449712;28;20225;-81
2021/10/28 20:49:12;;;;;;;17.50;16.00;;;10.70;99.90;;;;;;10448545;28;20201;-81
2021/10/28 20:54:18;;;;;;;16.50;14.90;;;10.70;99.90;;;;;;10443556;28;20225;-81
2021/10/28 20:59:22;;;;;;;17.20;15.53;;;10.70;99.90;;;;;;10426014;28;20205;-82
2021/10/28 21:04:25;;;;;;;17.30;15.80;;;10.60;99.90;;;;;;10451796;28;20225;-82
2021/10/28 21:09:27;;;;;;;17.67;15.90;;;10.60;99.90;;;;;;10437270;28;20210;-81
2021/10/28 21:14:43;;;;;;;;;;;;;;;;;;;;;
2021/10/28 21:19:59;;;;;;;17.30;15.70;;;10.60;99.90;;;;;;10435088;28;20202;-82
2021/10/28 21:25:01;;;;;;;18.17;16.37;;;10.60;99.90;;;;;;10437449;28;20214;-81
2021/10/28 21:30:16;;;;;;;17.63;15.90;;;10.60;99.90;;;;;;10425696;28;20212;-82
2021/10/28 21:35:20;;;;;;;18.07;16.37;;;10.60;99.90;;;;;;10413023;28;20216;-81
2021/10/28 21:40:22;;;;;;;19.50;17.60;;;10.60;99.90;;;;;;10456831;28;20288;-82
2021/10/28 21:45:30;;;;;;;18.40;16.40;;;10.50;99.90;;;;;;10435663;28;20270;-83
2021/10/28 21:50:36;;;;;;;18.00;16.20;;;10.50;99.90;;;;;;10436253;28;20204;-82
2021/10/28 21:55:47;;;;;;;18.97;17.07;;;10.50;99.90;;;;;;10412722;28;20225;-82
2021/10/28 22:00:59;;;;;;;19.43;17.33;;;10.40;99.90;;;;;;10449851;28;20617;-83
2021/10/28 22:28:57;;;;;;;21.90;19.73;;;10.20;99.90;;;;;;10449984;28;20631;-81
2021/10/28 22:34:01;;;;;;;21.43;19.33;;;10.20;99.90;;;;;;10459135;28;20233;-82
2021/10/28 22:39:10;;;;;;;21.40;19.50;;;10.20;99.90;;;;;;10446591;28;20212;-81
2021/10/28 22:44:13;;;;;;;22.13;20.03;;;10.10;99.90;;;;;;10429401;28;20689;-82
2021/10/28 22:49:15;;;;;;;22.87;20.57;;;10.10;99.90;;;;;;10432568;28;20284;-82
2021/10/28 22:54:19;;;;;;;21.83;19.53;;;10.10;99.90;;;;;;10416168;22;20237;-84
2021/10/28 22:59:21;;;;;;;23.47;20.97;;;10.10;99.90;;;;;;10351518;28;20716;-83
2021/10/28 23:04:52;;;;;;;24.03;21.63;;;10.10;99.90;;;;;;10353879;28;20273;-83
2021/10/28 23:10:24;;;;;;;22.73;20.50;;;10.00;99.90;;;;;;10352537;28;20199;-83
2021/10/28 23:15:39;;;;;;;24.80;22.33;;;10.00;99.90;;;;;;10354161;28;20226;-84
2021/10/28 23:20:45;;;;;;;23.87;21.37;;;10.00;99.90;;;;;;10297240;28;20206;-84
2021/10/28 23:25:49;;;;;;;24.60;22.10;;;10.00;99.90;;;;;;10345008;28;20219;-84
2021/10/28 23:30:51;;;;;;;26.63;23.83;;;9.90;99.90;;;;;;10327747;28;20200;-83
2021/10/28 23:35:53;;;;;;;22.53;20.43;;;9.90;99.90;;;;;;10318664;28;20225;-84
2021/10/28 23:40:57;;;;;;;24.90;22.50;;;9.80;99.90;;;;;;10313996;28;20687;-83
2021/10/28 23:45:59;;;;;;;25.60;23.00;;;9.80;99.90;;;;;;10320853;28;20731;-84
2021/10/28 23:51:01;;;;;;;25.90;22.97;;;9.80;99.90;;;;;;10305812;28;20294;-84
2021/10/28 23:56:05;;;;;;;24.03;21.73;;;9.80;99.90;;;;;;10314760;28;20259;-84
